createdAt,value
2023-03-11T00:00:25.458Z,0.00
2023-03-11T00:01:25.460Z,0.00
2023-03-11T00:02:25.546Z,0.00
2023-03-11T00:03:25.453Z,0.00
2023-03-11T00:04:25.462Z,0.00
2023-03-11T00:05:25.533Z,0.00
2023-03-11T00:06:25.457Z,0.00
2023-03-11T00:07:25.458Z,0.00
2023-03-11T00:08:25.520Z,0.00
2023-03-11T00:09:25.468Z,0.00
2023-03-11T00:10:25.466Z,0.00
2023-03-11T00:11:25.490Z,0.00
2023-03-11T00:12:25.473Z,0.00
2023-03-11T00:13:25.479Z,0.00
2023-03-11T00:14:25.480Z,0.00
2023-03-11T00:15:25.488Z,0.00
2023-03-11T00:16:25.510Z,0.00
2023-03-11T00:17:25.514Z,0.00
2023-03-11T00:18:25.502Z,0.00
2023-03-11T00:19:25.503Z,0.00
2023-03-11T00:20:25.507Z,0.00
2023-03-11T00:21:25.507Z,0.00
2023-03-11T00:22:25.504Z,0.00
2023-03-11T00:23:25.516Z,0.00
2023-03-11T00:24:25.526Z,0.00
2023-03-11T00:25:25.519Z,0.00
2023-03-11T00:26:25.519Z,0.00
2023-03-11T00:27:25.530Z,0.00
2023-03-11T00:28:25.525Z,0.00
2023-03-11T00:29:25.532Z,0.00
2023-03-11T00:30:25.533Z,0.00
2023-03-11T00:31:25.544Z,0.00
2023-03-11T00:32:25.555Z,0.00
2023-03-11T00:33:25.567Z,0.00
2023-03-11T00:34:25.546Z,0.00
2023-03-11T00:35:25.552Z,0.00
2023-03-11T00:36:25.553Z,0.00
2023-03-11T00:37:25.560Z,0.00
2023-03-11T00:38:25.637Z,0.00
2023-03-11T00:39:25.568Z,0.00
2023-03-11T00:40:25.569Z,0.00
2023-03-11T00:41:25.579Z,0.00
2023-03-11T00:42:25.584Z,0.00
2023-03-11T00:43:25.588Z,0.00
2023-03-11T00:44:25.582Z,0.00
2023-03-11T00:45:25.604Z,0.00
2023-03-11T00:46:25.649Z,0.00
2023-03-11T00:47:25.605Z,0.00
2023-03-11T00:48:25.599Z,0.00
2023-03-11T00:49:25.628Z,0.00
2023-03-11T00:50:25.608Z,0.00
2023-03-11T00:51:25.611Z,0.00
2023-03-11T00:52:25.610Z,0.00
2023-03-11T00:53:25.621Z,0.00
2023-03-11T00:54:25.620Z,0.00
2023-03-11T00:55:25.630Z,0.00
2023-03-11T00:56:25.625Z,0.00
2023-03-11T00:57:25.633Z,0.00
2023-03-11T00:58:25.637Z,0.00
2023-03-11T00:59:25.639Z,0.00
2023-03-11T01:00:25.639Z,0.00
2023-03-11T01:01:25.692Z,0.00
2023-03-11T01:02:25.652Z,0.00
2023-03-11T01:03:25.657Z,0.00
2023-03-11T01:04:25.705Z,0.00
2023-03-11T01:05:25.683Z,0.00
2023-03-11T01:06:30.130Z,0.00
2023-03-11T01:07:25.670Z,0.00
2023-03-11T01:08:25.671Z,0.00
2023-03-11T01:09:25.679Z,0.00
2023-03-11T01:10:25.679Z,0.00
2023-03-11T01:11:25.687Z,0.00
2023-03-11T01:12:25.688Z,0.00
2023-03-11T01:13:25.699Z,0.00
2023-03-11T01:14:25.691Z,0.00
2023-03-11T01:15:25.702Z,0.00
2023-03-11T01:16:25.711Z,0.00
2023-03-11T01:17:25.706Z,0.00
2023-03-11T01:18:25.710Z,0.00
2023-03-11T01:19:25.717Z,0.00
2023-03-11T01:20:25.748Z,0.00
2023-03-11T01:21:25.748Z,0.00
2023-03-11T01:22:25.723Z,0.00
2023-03-11T01:23:25.740Z,0.00
2023-03-11T01:24:25.734Z,0.00
2023-03-11T01:25:25.746Z,0.00
2023-03-11T01:26:25.739Z,0.00
2023-03-11T01:27:25.757Z,0.00
2023-03-11T01:28:25.746Z,0.00
2023-03-11T01:29:25.757Z,0.00
2023-03-11T01:30:25.756Z,0.00
2023-03-11T01:31:25.827Z,0.00
2023-03-11T01:32:25.830Z,0.00
2023-03-11T01:33:25.771Z,0.00
2023-03-11T01:34:25.770Z,0.00
2023-03-11T01:35:25.798Z,0.00
2023-03-11T01:36:25.778Z,0.00
2023-03-11T01:37:25.821Z,0.00
2023-03-11T01:38:25.783Z,0.00
2023-03-11T01:39:25.790Z,0.00
2023-03-11T01:40:25.824Z,0.00
2023-03-11T01:41:25.821Z,0.00
2023-03-11T01:42:25.813Z,0.00
2023-03-11T01:43:25.806Z,0.00
2023-03-11T01:44:25.806Z,0.00
2023-03-11T01:45:25.813Z,0.00
2023-03-11T01:46:25.901Z,0.00
2023-03-11T01:47:25.830Z,0.00
2023-03-11T01:48:25.836Z,0.00
2023-03-11T01:49:25.842Z,0.00
2023-03-11T01:50:25.837Z,0.00
2023-03-11T01:51:25.854Z,0.00
2023-03-11T01:52:25.854Z,0.00
2023-03-11T01:53:25.877Z,0.00
2023-03-11T01:54:25.846Z,0.00
2023-03-11T01:55:25.851Z,0.00
2023-03-11T01:56:25.850Z,0.00
2023-03-11T01:57:25.864Z,0.00
2023-03-11T01:58:25.865Z,0.00
2023-03-11T01:59:25.878Z,0.00
2023-03-11T02:00:25.872Z,0.00
2023-03-11T02:01:25.923Z,0.00
2023-03-11T02:02:25.873Z,0.00
2023-03-11T02:03:25.883Z,0.00
2023-03-11T02:04:25.883Z,0.00
2023-03-11T02:05:25.889Z,0.00
2023-03-11T02:06:25.914Z,0.00
2023-03-11T02:07:25.897Z,0.00
2023-03-11T02:08:25.899Z,0.00
2023-03-11T02:09:25.926Z,0.00
2023-03-11T02:10:25.912Z,0.00
2023-03-11T02:11:25.914Z,0.00
2023-03-11T02:12:25.916Z,0.00
2023-03-11T02:13:25.928Z,0.00
2023-03-11T02:14:25.928Z,0.00
2023-03-11T02:15:25.938Z,0.00
2023-03-11T02:16:26.001Z,0.00
2023-03-11T02:17:25.941Z,0.00
2023-03-11T02:18:25.948Z,0.00
2023-03-11T02:19:25.954Z,0.00
2023-03-11T02:20:25.953Z,0.00
2023-03-11T02:21:25.959Z,0.00
2023-03-11T02:22:25.963Z,0.00
2023-03-11T02:23:25.969Z,0.00
2023-03-11T02:24:25.968Z,0.00
2023-03-11T02:25:26.001Z,0.00
2023-03-11T02:26:25.983Z,0.00
2023-03-11T02:27:25.989Z,0.00
2023-03-11T02:28:25.987Z,0.00
2023-03-11T02:29:25.992Z,0.00
2023-03-11T02:30:26.003Z,0.00
2023-03-11T02:31:26.061Z,0.00
2023-03-11T02:32:26.024Z,0.00
2023-03-11T02:33:26.012Z,0.00
2023-03-11T02:34:26.023Z,0.00
2023-03-11T02:35:26.013Z,0.00
2023-03-11T02:36:26.037Z,0.00
2023-03-11T02:37:26.025Z,0.00
2023-03-11T02:38:26.032Z,0.00
2023-03-11T02:39:26.032Z,0.00
2023-03-11T02:40:26.037Z,0.00
2023-03-11T02:41:26.064Z,0.00
2023-03-11T02:42:26.050Z,0.00
2023-03-11T02:43:26.057Z,0.00
2023-03-11T02:44:26.088Z,0.00
2023-03-11T02:45:26.068Z,0.00
2023-03-11T02:46:26.104Z,0.00
2023-03-11T02:47:26.075Z,0.00
2023-03-11T02:48:26.073Z,0.00
2023-03-11T02:49:26.066Z,0.00
2023-03-11T02:50:26.082Z,0.00
2023-03-11T02:51:26.088Z,0.00
2023-03-11T02:52:26.110Z,0.00
2023-03-11T02:53:26.087Z,0.00
2023-03-11T02:54:26.090Z,0.00
2023-03-11T02:55:26.094Z,0.00
2023-03-11T02:56:26.102Z,0.00
2023-03-11T02:57:26.116Z,0.00
2023-03-11T02:58:26.104Z,0.00
2023-03-11T02:59:26.108Z,0.00
2023-03-11T03:00:26.133Z,0.00
2023-03-11T03:01:26.112Z,0.00
2023-03-11T03:02:26.123Z,0.00
2023-03-11T03:03:26.121Z,0.00
2023-03-11T03:04:26.199Z,0.00
2023-03-11T03:05:26.130Z,0.00
2023-03-11T03:06:26.138Z,0.00
2023-03-11T03:07:26.138Z,0.00
2023-03-11T03:08:26.147Z,0.00
2023-03-11T03:09:26.164Z,0.00
2023-03-11T03:10:26.153Z,0.00
2023-03-11T03:11:26.158Z,0.00
2023-03-11T03:12:26.174Z,0.00
2023-03-11T03:13:26.182Z,0.00
2023-03-11T03:14:26.181Z,0.00
2023-03-11T03:15:26.181Z,0.00
2023-03-11T03:16:26.213Z,0.00
2023-03-11T03:17:26.227Z,0.00
2023-03-11T03:18:26.194Z,0.00
2023-03-11T03:19:26.197Z,0.00
2023-03-11T03:20:26.201Z,0.00
2023-03-11T03:21:26.200Z,0.00
2023-03-11T03:22:26.206Z,0.00
2023-03-11T03:23:26.210Z,0.00
2023-03-11T03:24:26.223Z,0.00
2023-03-11T03:25:26.222Z,0.00
2023-03-11T03:26:26.229Z,0.00
2023-03-11T03:27:26.236Z,0.00
2023-03-11T03:28:26.235Z,0.00
2023-03-11T03:29:26.256Z,0.00
2023-03-11T03:30:26.264Z,0.00
2023-03-11T03:31:26.282Z,0.00
2023-03-11T03:32:26.274Z,0.00
2023-03-11T03:33:26.263Z,0.00
2023-03-11T03:34:26.259Z,0.00
2023-03-11T03:35:26.263Z,0.00
2023-03-11T03:36:26.272Z,0.00
2023-03-11T03:37:26.280Z,0.00
2023-03-11T03:38:26.279Z,0.00
2023-03-11T03:39:27.738Z,0.00
2023-03-11T03:40:26.291Z,0.00
2023-03-11T03:41:26.296Z,0.00
2023-03-11T03:42:26.296Z,0.00
2023-03-11T03:43:26.305Z,0.00
2023-03-11T03:44:26.307Z,0.00
2023-03-11T03:45:26.324Z,0.00
2023-03-11T03:46:26.368Z,0.00
2023-03-11T03:47:26.313Z,0.00
2023-03-11T03:48:26.323Z,0.00
2023-03-11T03:49:26.321Z,0.00
2023-03-11T03:50:26.333Z,0.00
2023-03-11T03:51:26.328Z,0.00
2023-03-11T03:52:26.349Z,0.00
2023-03-11T03:53:26.338Z,0.00
2023-03-11T03:54:26.355Z,0.00
2023-03-11T03:55:26.347Z,0.00
2023-03-11T03:56:26.371Z,0.00
2023-03-11T03:57:26.362Z,0.00
2023-03-11T03:58:26.368Z,0.00
2023-03-11T03:59:26.365Z,0.00
2023-03-11T04:00:26.373Z,0.00
2023-03-11T04:01:26.400Z,0.00
2023-03-11T04:02:26.481Z,0.00
2023-03-11T04:03:26.484Z,0.00
2023-03-11T04:04:26.410Z,0.00
2023-03-11T04:05:26.392Z,0.00
2023-03-11T04:06:26.400Z,0.00
2023-03-11T04:07:26.400Z,0.00
2023-03-11T04:08:26.411Z,0.00
2023-03-11T04:09:26.409Z,0.00
2023-03-11T04:10:26.422Z,0.00
2023-03-11T04:11:26.420Z,0.00
2023-03-11T04:12:26.425Z,0.00
2023-03-11T04:13:26.439Z,0.00
2023-03-11T04:14:26.439Z,0.00
2023-03-11T04:15:26.436Z,0.00
2023-03-11T04:16:26.520Z,0.00
2023-03-11T04:17:26.480Z,0.00
2023-03-11T04:18:26.453Z,0.00
2023-03-11T04:19:26.455Z,0.00
2023-03-11T04:20:26.459Z,0.00
2023-03-11T04:21:26.461Z,0.00
2023-03-11T04:22:26.559Z,0.00
2023-03-11T04:23:26.472Z,0.00
2023-03-11T04:24:26.480Z,0.00
2023-03-11T04:25:26.478Z,0.00
2023-03-11T04:26:26.493Z,0.00
2023-03-11T04:27:26.609Z,0.00
2023-03-11T04:28:26.497Z,0.00
2023-03-11T04:29:26.497Z,0.00
2023-03-11T04:30:26.501Z,0.00
2023-03-11T04:31:26.512Z,0.00
2023-03-11T04:32:26.599Z,0.00
2023-03-11T04:33:26.537Z,0.00
2023-03-11T04:34:26.524Z,0.00
2023-03-11T04:35:26.563Z,0.00
2023-03-11T04:36:26.586Z,0.00
2023-03-11T04:37:26.524Z,0.00
2023-03-11T04:38:26.532Z,0.00
2023-03-11T04:39:26.542Z,0.00
2023-03-11T04:40:26.545Z,0.00
2023-03-11T04:41:26.550Z,0.00
2023-03-11T04:42:26.548Z,0.00
2023-03-11T04:43:26.596Z,0.00
2023-03-11T04:44:26.563Z,0.00
2023-03-11T04:45:26.557Z,0.00
2023-03-11T04:46:26.640Z,0.00
2023-03-11T04:47:26.567Z,0.00
2023-03-11T04:48:26.577Z,0.00
2023-03-11T04:49:26.606Z,0.00
2023-03-11T04:50:26.599Z,0.00
2023-03-11T04:51:26.586Z,0.00
2023-03-11T04:52:26.594Z,0.00
2023-03-11T04:53:26.591Z,0.00
2023-03-11T04:54:26.601Z,0.00
2023-03-11T04:55:26.607Z,0.00
2023-03-11T04:56:26.610Z,0.00
2023-03-11T04:57:26.617Z,0.00
2023-03-11T04:58:26.622Z,0.00
2023-03-11T04:59:26.616Z,0.00
2023-03-11T05:00:26.626Z,0.00
2023-03-11T05:01:26.655Z,0.00
2023-03-11T05:02:26.633Z,0.00
2023-03-11T05:03:26.644Z,0.00
2023-03-11T05:04:26.697Z,0.00
2023-03-11T05:05:26.744Z,0.00
2023-03-11T05:06:26.680Z,0.00
2023-03-11T05:07:26.651Z,0.00
2023-03-11T05:08:26.663Z,0.00
2023-03-11T05:09:26.659Z,0.00
2023-03-11T05:10:26.664Z,0.00
2023-03-11T05:11:26.696Z,0.00
2023-03-11T05:12:26.680Z,0.00
2023-03-11T05:13:26.680Z,0.00
2023-03-11T05:14:26.696Z,0.00
2023-03-11T05:15:26.699Z,0.00
2023-03-11T05:16:26.735Z,0.00
2023-03-11T05:17:26.709Z,0.00
2023-03-11T05:18:26.707Z,0.00
2023-03-11T05:19:26.716Z,0.00
2023-03-11T05:20:26.712Z,0.00
2023-03-11T05:21:26.736Z,0.00
2023-03-11T05:22:26.721Z,0.00
2023-03-11T05:23:26.718Z,0.00
2023-03-11T05:24:26.735Z,0.00
2023-03-11T05:25:26.729Z,0.00
2023-03-11T05:26:26.737Z,0.00
2023-03-11T05:27:26.741Z,0.00
2023-03-11T05:28:26.744Z,0.00
2023-03-11T05:29:26.743Z,0.00
2023-03-11T05:30:26.751Z,0.00
2023-03-11T05:31:26.802Z,0.00
2023-03-11T05:32:26.793Z,0.00
2023-03-11T05:33:26.759Z,0.00
2023-03-11T05:34:26.769Z,0.00
2023-03-11T05:35:26.795Z,0.00
2023-03-11T05:36:26.786Z,0.00
2023-03-11T05:37:26.906Z,0.00
2023-03-11T05:38:26.825Z,0.00
2023-03-11T05:39:26.789Z,0.00
2023-03-11T05:40:26.800Z,0.00
2023-03-11T05:41:26.800Z,0.00
2023-03-11T05:42:26.808Z,0.00
2023-03-11T05:43:26.810Z,0.00
2023-03-11T05:44:26.813Z,0.00
2023-03-11T05:45:26.817Z,0.00
2023-03-11T05:46:26.867Z,0.00
2023-03-11T05:47:26.829Z,0.00
2023-03-11T05:48:26.841Z,0.00
2023-03-11T05:49:26.835Z,0.00
2023-03-11T05:50:26.838Z,0.00
2023-03-11T05:51:26.845Z,0.00
2023-03-11T05:52:26.874Z,0.00
2023-03-11T05:53:26.877Z,0.00
2023-03-11T05:54:26.861Z,0.00
2023-03-11T05:55:26.866Z,0.00
2023-03-11T05:56:26.867Z,0.00
2023-03-11T05:57:26.863Z,0.00
2023-03-11T05:58:26.911Z,0.00
2023-03-11T05:59:26.882Z,0.00
2023-03-11T06:00:26.878Z,0.00
2023-03-11T06:01:26.883Z,0.00
2023-03-11T06:02:26.889Z,0.00
2023-03-11T06:03:26.887Z,0.00
2023-03-11T06:04:26.982Z,0.00
2023-03-11T06:05:26.967Z,0.00
2023-03-11T06:06:26.921Z,0.00
2023-03-11T06:07:26.912Z,0.00
2023-03-11T06:08:26.916Z,0.00
2023-03-11T06:09:26.943Z,0.00
2023-03-11T06:10:26.921Z,0.00
2023-03-11T06:11:26.925Z,0.00
2023-03-11T06:12:26.936Z,0.00
2023-03-11T06:13:26.928Z,0.00
2023-03-11T06:14:26.938Z,0.00
2023-03-11T06:15:26.936Z,0.00
2023-03-11T06:16:26.999Z,0.00
2023-03-11T06:17:29.284Z,0.00
2023-03-11T06:18:26.959Z,0.00
2023-03-11T06:19:26.952Z,0.00
2023-03-11T06:20:26.964Z,0.00
2023-03-11T06:21:26.962Z,0.00
2023-03-11T06:22:26.968Z,0.00
2023-03-11T06:23:26.971Z,0.00
2023-03-11T06:24:26.985Z,0.00
2023-03-11T06:25:27.010Z,0.00
2023-03-11T06:26:26.985Z,0.00
2023-03-11T06:27:26.990Z,0.00
2023-03-11T06:28:26.998Z,0.00
2023-03-11T06:29:26.994Z,0.00
2023-03-11T06:30:27.003Z,0.00
2023-03-11T06:31:27.095Z,5.63
2023-03-11T06:32:27.071Z,0.00
2023-03-11T06:33:27.085Z,0.00
2023-03-11T06:34:27.024Z,0.00
2023-03-11T06:35:27.024Z,0.00
2023-03-11T06:36:27.082Z,0.00
2023-03-11T06:37:27.028Z,0.00
2023-03-11T06:38:27.037Z,5.63
2023-03-11T06:39:27.044Z,5.63
2023-03-11T06:40:27.056Z,0.00
2023-03-11T06:41:27.066Z,0.00
2023-03-11T06:42:27.074Z,0.00
2023-03-11T06:43:27.053Z,0.00
2023-03-11T06:44:27.066Z,5.63
2023-03-11T06:45:27.062Z,5.63
2023-03-11T06:46:27.082Z,5.63
2023-03-11T06:47:27.121Z,0.00
2023-03-11T06:48:27.083Z,0.00
2023-03-11T06:49:27.080Z,0.00
2023-03-11T06:50:27.086Z,0.00
2023-03-11T06:51:27.096Z,0.00
2023-03-11T06:52:27.092Z,0.00
2023-03-11T06:53:27.102Z,0.00
2023-03-11T06:54:27.121Z,0.00
2023-03-11T06:55:27.109Z,0.00
2023-03-11T06:56:27.119Z,0.00
2023-03-11T06:57:27.142Z,0.00
2023-03-11T06:58:27.118Z,5.63
2023-03-11T06:59:27.127Z,5.63
2023-03-11T07:00:27.135Z,5.63
2023-03-11T07:01:27.210Z,0.00
2023-03-11T07:02:27.143Z,0.00
2023-03-11T07:03:27.143Z,0.00
2023-03-11T07:04:27.210Z,0.00
2023-03-11T07:05:27.154Z,0.00
2023-03-11T07:06:27.157Z,0.00
2023-03-11T07:07:27.164Z,5.63
2023-03-11T07:08:27.167Z,5.63
2023-03-11T07:09:27.172Z,5.63
2023-03-11T07:10:27.173Z,5.63
2023-03-11T07:11:27.184Z,5.63
2023-03-11T07:12:27.202Z,5.63
2023-03-11T07:13:27.219Z,5.63
2023-03-11T07:14:27.192Z,5.63
2023-03-11T07:15:27.202Z,5.63
2023-03-11T07:16:27.265Z,0.00
2023-03-11T07:17:27.222Z,0.00
2023-03-11T07:18:27.210Z,0.00
2023-03-11T07:19:27.219Z,0.00
2023-03-11T07:20:27.219Z,0.00
2023-03-11T07:21:27.227Z,0.00
2023-03-11T07:22:27.230Z,0.00
2023-03-11T07:23:27.243Z,0.00
2023-03-11T07:24:27.237Z,5.63
2023-03-11T07:25:27.243Z,5.63
2023-03-11T07:26:27.247Z,5.63
2023-03-11T07:27:27.257Z,5.63
2023-03-11T07:28:27.255Z,5.63
2023-03-11T07:29:27.283Z,5.63
2023-03-11T07:30:27.272Z,5.63
2023-03-11T07:31:27.315Z,5.63
2023-03-11T07:32:27.300Z,11.25
2023-03-11T07:33:27.279Z,11.25
2023-03-11T07:34:27.281Z,11.25
2023-03-11T07:35:27.293Z,11.25
2023-03-11T07:36:27.299Z,11.25
2023-03-11T07:37:27.296Z,5.63
2023-03-11T07:38:27.323Z,5.63
2023-03-11T07:39:27.307Z,5.63
2023-03-11T07:40:27.324Z,5.63
2023-03-11T07:41:27.321Z,5.63
2023-03-11T07:42:27.316Z,5.63
2023-03-11T07:43:27.340Z,5.63
2023-03-11T07:44:27.325Z,5.63
2023-03-11T07:45:27.354Z,5.63
2023-03-11T07:46:27.386Z,11.25
2023-03-11T07:47:27.342Z,11.25
2023-03-11T07:48:27.342Z,11.25
2023-03-11T07:49:27.348Z,11.25
2023-03-11T07:50:27.358Z,11.25
2023-03-11T07:51:27.366Z,11.25
2023-03-11T07:52:27.361Z,16.88
2023-03-11T07:53:27.370Z,16.88
2023-03-11T07:54:27.370Z,16.88
2023-03-11T07:55:27.377Z,16.88
2023-03-11T07:56:27.379Z,11.25
2023-03-11T07:57:27.386Z,11.25
2023-03-11T07:58:27.392Z,11.25
2023-03-11T07:59:27.395Z,11.25
2023-03-11T08:00:27.396Z,11.25
2023-03-11T08:01:27.434Z,11.25
2023-03-11T08:02:27.474Z,11.25
2023-03-11T08:03:27.430Z,11.25
2023-03-11T08:04:27.415Z,11.25
2023-03-11T08:05:27.425Z,11.25
2023-03-11T08:06:27.425Z,11.25
2023-03-11T08:07:27.434Z,11.25
2023-03-11T08:08:27.441Z,11.25
2023-03-11T08:09:27.441Z,11.25
2023-03-11T08:10:27.452Z,11.25
2023-03-11T08:11:27.452Z,11.25
2023-03-11T08:12:27.454Z,11.25
2023-03-11T08:13:27.462Z,11.25
2023-03-11T08:14:27.465Z,11.25
2023-03-11T08:15:27.474Z,11.25
2023-03-11T08:16:27.474Z,11.25
2023-03-11T08:17:27.501Z,16.88
2023-03-11T08:18:27.486Z,16.88
2023-03-11T08:19:27.526Z,16.88
2023-03-11T08:20:27.556Z,16.88
2023-03-11T08:21:27.501Z,11.25
2023-03-11T08:22:27.512Z,16.88
2023-03-11T08:23:27.512Z,16.88
2023-03-11T08:24:27.518Z,11.25
2023-03-11T08:25:27.526Z,5.63
2023-03-11T08:26:27.525Z,5.63
2023-03-11T08:27:27.535Z,5.63
2023-03-11T08:28:27.538Z,11.25
2023-03-11T08:29:27.542Z,11.25
2023-03-11T08:30:27.565Z,11.25
2023-03-11T08:31:27.614Z,11.25
2023-03-11T08:32:27.595Z,5.63
2023-03-11T08:33:27.581Z,5.63
2023-03-11T08:34:27.561Z,11.25
2023-03-11T08:35:27.576Z,11.25
2023-03-11T08:36:27.572Z,11.25
2023-03-11T08:37:27.587Z,16.88
2023-03-11T08:38:27.665Z,11.25
2023-03-11T08:39:27.601Z,11.25
2023-03-11T08:40:27.606Z,11.25
2023-03-11T08:41:27.616Z,11.25
2023-03-11T08:42:27.599Z,11.25
2023-03-11T08:43:27.610Z,11.25
2023-03-11T08:44:27.621Z,11.25
2023-03-11T08:45:27.619Z,11.25
2023-03-11T08:46:27.666Z,11.25
2023-03-11T08:47:27.630Z,11.25
2023-03-11T08:48:27.642Z,11.25
2023-03-11T08:49:27.666Z,11.25
2023-03-11T08:50:27.652Z,11.25
2023-03-11T08:51:27.652Z,16.88
2023-03-11T08:52:27.647Z,22.50
2023-03-11T08:53:27.656Z,16.88
2023-03-11T08:54:27.661Z,16.88
2023-03-11T08:55:27.712Z,11.25
2023-03-11T08:56:27.668Z,11.25
2023-03-11T08:57:27.681Z,11.25
2023-03-11T08:58:27.675Z,5.63
2023-03-11T08:59:27.696Z,5.63
2023-03-11T09:00:27.689Z,11.25
2023-03-11T09:01:27.698Z,11.25
2023-03-11T09:02:27.757Z,11.25
2023-03-11T09:03:27.702Z,11.25
2023-03-11T09:04:27.710Z,11.25
2023-03-11T09:05:27.798Z,11.25
2023-03-11T09:06:27.730Z,11.25
2023-03-11T09:07:27.720Z,11.25
2023-03-11T09:08:27.723Z,11.25
2023-03-11T09:09:27.740Z,11.25
2023-03-11T09:10:27.737Z,11.25
2023-03-11T09:11:27.750Z,11.25
2023-03-11T09:12:27.743Z,11.25
2023-03-11T09:13:27.750Z,11.25
2023-03-11T09:14:27.749Z,11.25
2023-03-11T09:15:27.759Z,11.25
2023-03-11T09:16:27.852Z,11.25
2023-03-11T09:17:27.771Z,11.25
2023-03-11T09:18:27.768Z,11.25
2023-03-11T09:19:27.778Z,16.88
2023-03-11T09:20:27.780Z,16.88
2023-03-11T09:21:27.807Z,16.88
2023-03-11T09:22:27.793Z,16.88
2023-03-11T09:23:27.807Z,16.88
2023-03-11T09:24:27.810Z,16.88
2023-03-11T09:25:27.804Z,22.50
2023-03-11T09:26:27.807Z,16.88
2023-03-11T09:27:27.814Z,16.88
2023-03-11T09:28:27.817Z,16.88
2023-03-11T09:29:27.844Z,22.50
2023-03-11T09:30:27.827Z,22.50
2023-03-11T09:31:27.875Z,22.50
2023-03-11T09:32:27.881Z,22.50
2023-03-11T09:33:27.851Z,22.50
2023-03-11T09:34:27.849Z,22.50
2023-03-11T09:35:27.904Z,22.50
2023-03-11T09:36:27.858Z,22.50
2023-03-11T09:37:27.885Z,22.50
2023-03-11T09:38:27.867Z,22.50
2023-03-11T09:39:27.877Z,22.50
2023-03-11T09:40:27.889Z,28.13
2023-03-11T09:41:27.887Z,28.13
2023-03-11T09:42:27.890Z,22.50
2023-03-11T09:43:27.898Z,22.50
2023-03-11T09:44:27.900Z,22.50
2023-03-11T09:45:27.911Z,22.50
2023-03-11T09:46:28.026Z,22.50
2023-03-11T09:47:27.919Z,22.50
2023-03-11T09:48:27.922Z,22.50
2023-03-11T09:49:27.929Z,22.50
2023-03-11T09:50:27.938Z,22.50
2023-03-11T09:51:27.942Z,22.50
2023-03-11T09:52:27.944Z,22.50
2023-03-11T09:53:27.972Z,22.50
2023-03-11T09:54:27.954Z,22.50
2023-03-11T09:55:27.964Z,22.50
2023-03-11T09:56:27.964Z,22.50
2023-03-11T09:57:27.979Z,22.50
2023-03-11T09:58:27.975Z,22.50
2023-03-11T09:59:27.987Z,22.50
2023-03-11T10:00:27.998Z,22.50
2023-03-11T10:01:27.997Z,22.50
2023-03-11T10:02:28.306Z,22.50
2023-03-11T10:03:28.017Z,22.50
2023-03-11T10:04:28.021Z,22.50
2023-03-11T10:05:28.020Z,28.13
2023-03-11T10:06:28.026Z,28.13
2023-03-11T10:07:28.039Z,28.13
2023-03-11T10:08:28.035Z,22.50
2023-03-11T10:09:28.062Z,28.13
2023-03-11T10:10:28.105Z,28.13
2023-03-11T10:11:28.057Z,22.50
2023-03-11T10:12:28.057Z,22.50
2023-03-11T10:13:28.063Z,22.50
2023-03-11T10:14:28.067Z,22.50
2023-03-11T10:15:28.076Z,28.13
2023-03-11T10:16:28.155Z,22.50
2023-03-11T10:17:28.100Z,22.50
2023-03-11T10:18:28.092Z,22.50
2023-03-11T10:19:28.106Z,22.50
2023-03-11T10:20:28.106Z,22.50
2023-03-11T10:21:28.128Z,22.50
2023-03-11T10:22:28.114Z,22.50
2023-03-11T10:23:28.147Z,22.50
2023-03-11T10:24:28.125Z,28.13
2023-03-11T10:25:28.162Z,22.50
2023-03-11T10:26:28.136Z,22.50
2023-03-11T10:27:28.153Z,22.50
2023-03-11T10:28:28.153Z,22.50
2023-03-11T10:29:28.162Z,22.50
2023-03-11T10:30:28.168Z,28.13
2023-03-11T10:31:28.205Z,22.50
2023-03-11T10:32:28.222Z,22.50
2023-03-11T10:33:28.181Z,22.50
2023-03-11T10:34:28.200Z,22.50
2023-03-11T10:35:28.200Z,22.50
2023-03-11T10:36:28.198Z,22.50
2023-03-11T10:37:38.863Z,33.75
2023-03-11T10:38:28.209Z,33.75
2023-03-11T10:39:28.221Z,28.13
2023-03-11T10:40:28.231Z,28.13
2023-03-11T10:41:28.257Z,28.13
2023-03-11T10:42:28.232Z,28.13
2023-03-11T10:43:28.242Z,28.13
2023-03-11T10:44:28.244Z,28.13
2023-03-11T10:45:28.251Z,28.13
2023-03-11T10:46:28.256Z,28.13
2023-03-11T10:47:28.266Z,28.13
2023-03-11T10:48:28.270Z,22.50
2023-03-11T10:49:28.292Z,22.50
2023-03-11T10:50:28.305Z,22.50
2023-03-11T10:51:28.290Z,22.50
2023-03-11T10:52:28.289Z,22.50
2023-03-11T10:53:28.300Z,22.50
2023-03-11T10:54:28.310Z,22.50
2023-03-11T10:55:28.312Z,22.50
2023-03-11T10:56:28.332Z,22.50
2023-03-11T10:57:28.345Z,22.50
2023-03-11T10:58:28.344Z,22.50
2023-03-11T10:59:28.335Z,22.50
2023-03-11T11:00:28.341Z,22.50
2023-03-11T11:01:28.360Z,22.50
2023-03-11T11:02:28.348Z,22.50
2023-03-11T11:03:28.358Z,22.50
2023-03-11T11:04:28.409Z,22.50
2023-03-11T11:05:28.373Z,22.50
2023-03-11T11:06:28.377Z,22.50
2023-03-11T11:07:28.398Z,22.50
2023-03-11T11:08:28.390Z,22.50
2023-03-11T11:09:28.392Z,22.50
2023-03-11T11:10:28.402Z,22.50
2023-03-11T11:11:28.411Z,22.50
2023-03-11T11:12:28.414Z,22.50
2023-03-11T11:13:28.437Z,22.50
2023-03-11T11:14:28.425Z,22.50
2023-03-11T11:15:28.425Z,22.50
2023-03-11T11:16:28.529Z,22.50
2023-03-11T11:17:28.438Z,22.50
2023-03-11T11:18:28.445Z,22.50
2023-03-11T11:19:28.449Z,22.50
2023-03-11T11:20:28.459Z,22.50
2023-03-11T11:21:28.465Z,28.13
2023-03-11T11:22:28.485Z,33.75
2023-03-11T11:23:28.473Z,33.75
2023-03-11T11:24:28.488Z,39.38
2023-03-11T11:25:28.536Z,39.38
2023-03-11T11:26:28.508Z,33.75
2023-03-11T11:27:28.530Z,39.38
2023-03-11T11:28:28.544Z,39.38
2023-03-11T11:29:28.530Z,33.75
2023-03-11T11:30:28.522Z,39.38
2023-03-11T11:31:28.520Z,28.13
2023-03-11T11:32:28.620Z,28.13
2023-03-11T11:33:28.532Z,28.13
2023-03-11T11:34:28.561Z,28.13
2023-03-11T11:35:28.567Z,22.50
2023-03-11T11:36:28.550Z,22.50
2023-03-11T11:37:28.555Z,22.50
2023-03-11T11:38:28.564Z,22.50
2023-03-11T11:39:28.569Z,28.13
2023-03-11T11:40:28.577Z,28.13
2023-03-11T11:41:28.580Z,28.13
2023-03-11T11:42:28.587Z,28.13
2023-03-11T11:43:28.593Z,33.75
2023-03-11T11:44:28.599Z,33.75
2023-03-11T11:45:28.625Z,28.13
2023-03-11T11:46:28.632Z,22.50
2023-03-11T11:47:28.612Z,28.13
2023-03-11T11:48:28.625Z,33.75
2023-03-11T11:49:28.639Z,39.38
2023-03-11T11:50:28.637Z,39.38
2023-03-11T11:51:28.644Z,39.38
2023-03-11T11:52:28.645Z,39.38
2023-03-11T11:53:28.653Z,39.38
2023-03-11T11:54:28.662Z,39.38
2023-03-11T11:55:28.674Z,45.00
2023-03-11T11:56:28.673Z,39.38
2023-03-11T11:57:28.692Z,39.38
2023-03-11T11:58:28.693Z,39.38
2023-03-11T11:59:28.687Z,39.38
2023-03-11T12:00:28.711Z,39.38
2023-03-11T12:01:28.719Z,45.00
2023-03-11T12:02:28.724Z,50.63
2023-03-11T12:03:28.744Z,39.38
2023-03-11T12:04:28.723Z,39.38
2023-03-11T12:05:28.784Z,39.38
2023-03-11T12:06:28.737Z,39.38
2023-03-11T12:07:28.741Z,39.38
2023-03-11T12:08:28.754Z,39.38
2023-03-11T12:09:28.752Z,33.75
2023-03-11T12:10:28.774Z,39.38
2023-03-11T12:11:28.777Z,33.75
2023-03-11T12:12:28.779Z,33.75
2023-03-11T12:13:28.788Z,39.38
2023-03-11T12:14:28.790Z,39.38
2023-03-11T12:15:28.795Z,39.38
2023-03-11T12:16:28.806Z,39.38
2023-03-11T12:17:28.834Z,39.38
2023-03-11T12:18:28.827Z,39.38
2023-03-11T12:19:28.822Z,39.38
2023-03-11T12:20:28.838Z,39.38
2023-03-11T12:21:28.833Z,39.38
2023-03-11T12:22:28.881Z,33.75
2023-03-11T12:23:28.863Z,39.38
2023-03-11T12:24:28.860Z,33.75
2023-03-11T12:25:28.867Z,39.38
2023-03-11T12:26:28.872Z,39.38
2023-03-11T12:27:28.877Z,39.38
2023-03-11T12:28:28.892Z,39.38
2023-03-11T12:29:28.893Z,33.75
2023-03-11T12:30:28.902Z,33.75
2023-03-11T12:31:28.952Z,33.75
2023-03-11T12:32:28.981Z,39.38
2023-03-11T12:33:28.941Z,39.38
2023-03-11T12:34:28.932Z,39.38
2023-03-11T12:35:28.942Z,39.38
2023-03-11T12:36:28.949Z,39.38
2023-03-11T12:37:28.952Z,39.38
2023-03-11T12:38:28.971Z,39.38
2023-03-11T12:39:28.969Z,33.75
2023-03-11T12:40:28.984Z,28.13
2023-03-11T12:41:28.988Z,33.75
2023-03-11T12:42:28.988Z,39.38
2023-03-11T12:43:28.993Z,39.38
2023-03-11T12:44:29.036Z,39.38
2023-03-11T12:45:29.012Z,39.38
2023-03-11T12:46:29.097Z,39.38
2023-03-11T12:47:29.111Z,39.38
2023-03-11T12:48:29.029Z,39.38
2023-03-11T12:49:29.059Z,39.38
2023-03-11T12:50:29.046Z,39.38
2023-03-11T12:51:29.052Z,39.38
2023-03-11T12:52:29.062Z,39.38
2023-03-11T12:53:29.062Z,39.38
2023-03-11T12:54:29.075Z,39.38
2023-03-11T12:55:29.112Z,39.38
2023-03-11T12:56:29.098Z,39.38
2023-03-11T12:57:29.090Z,39.38
2023-03-11T12:58:29.116Z,39.38
2023-03-11T12:59:29.117Z,39.38
2023-03-11T13:00:29.114Z,39.38
2023-03-11T13:01:29.158Z,39.38
2023-03-11T13:02:29.166Z,39.38
2023-03-11T13:03:29.139Z,39.38
2023-03-11T13:04:29.190Z,39.38
2023-03-11T13:05:29.181Z,39.38
2023-03-11T13:06:29.166Z,39.38
2023-03-11T13:07:29.174Z,45.00